Colton, WA

6:07 AM PST on December 26, 2014 (GMT -0800)
Town of Colton | Change Station
CLOSE
Current Station
Personal Weather Station
Location: Colton, WA
Elevation: 2579 ft
Nearby Weather Stations

Elev 2579 ft 46.57 °N, 117.12 °W | Updated 2 minutes ago

Overcast
Overcast
29.4 °F
Feels Like 29 °F
N
0.0
Wind Variable Wind from West
Gusts 5.0 mph

Today
High -- | Low -- °F
--% Chance of Precip.
Yesterday
High -- | Low -- °F
Precip. -- in
7:31 AM 4:06 PM
Waxing Crescent, 26% visible
Pressure 30.26 in
Visibility 10.0 miles
Clouds Clear
Windchill 29 °F
Dew Point 25 °F
Humidity 83%
Rainfall 0.00 in
Snow Depth Not available.
UV 0 out of 12
Pollen .10 out of 12
Air Quality Not available.
Flu Activity Not available.
METAR KPUW 261353Z AUTO 25009KT 10SM CLR M02/M03 A3018 RMK AO2 SLP246 T10171033

More Conditions Fewer Conditions

Pressure 30.26 in
Visibility 10.0 miles
Clouds Clear
Windchill 29 °F
Dew Point 25 °F
Humidity 83%
Rainfall 0.00 in
Snow Depth Not available.
UV 0 out of 12
Pollen .10 out of 12
Air Quality Not available.
Flu Activity Not available.
METAR KPUW 261353Z AUTO 25009KT 10SM CLR M02/M03 A3018 RMK AO2 SLP246 T10171033

More Conditions Fewer Conditions

Nowcast | as of 6:04 am PST on December 26, 2014

Areas of fog will limit visibilities to a quarter mile or less this morning around Spokane...Coeur D'Alene...Deer Park... Spangle...Rosalia...and Potlatch. Motorists should be prepared for locally thick fog and frosty roads through 10 am. Highway 195 between Spokane and Colfax...and Highway 95 between Coeur D'Alene and Moscow will be trouble areas due to limited visibility this morning.

×

10-Day Weather Forecast

Almanac

Astronomy

Dec. 26, 2014 Rise Set
Actual Time
Civil Twilight
Nautical Twilight
Astronomical Twilight
Moon
Length of Visible Light
Length of Day
Tomorrow will be .
, % of the Moon is Illuminated

Today's Extremes

State Highs State Lows

Community

WunderPhotos

Upload Photos

1,780,593 photos uploaded!

WunderBlogs® & News

Nearby

Air Quality

  Air Quality AQ Index Pollutant
Not available.

Snow Depth

Station Depth Elevation

Earthquake Activity

City Distance Mag. Time & Date
Minimum magnitude displayed is 2.5.

Coastal Water Temperatures

Place Temperature

Nearby Weather Stations